createdAt,value
2023-01-15T00:00:00.637Z,99670
2023-01-15T00:01:01.745Z,99670
2023-01-15T00:02:00.597Z,99660
2023-01-15T00:03:00.674Z,99660
2023-01-15T00:04:01.295Z,99660
2023-01-15T00:05:00.604Z,99660
2023-01-15T00:06:01.193Z,99660
2023-01-15T00:07:00.606Z,99660
2023-01-15T00:08:00.611Z,99670
2023-01-15T00:09:00.703Z,99670
2023-01-15T00:10:00.614Z,99670
2023-01-15T00:11:04.062Z,99660
2023-01-15T00:12:00.600Z,99660
2023-01-15T00:13:00.813Z,99660
2023-01-15T00:14:00.686Z,99660
2023-01-15T00:15:00.624Z,99660
2023-01-15T00:16:02.725Z,99660
2023-01-15T00:17:00.581Z,99660
2023-01-15T00:18:00.810Z,99670
2023-01-15T00:19:01.130Z,99670
2023-01-15T00:20:00.622Z,99670
2023-01-15T00:21:01.550Z,99670
2023-01-15T00:22:00.594Z,99670
2023-01-15T00:23:00.603Z,99670
2023-01-15T00:24:00.618Z,99670
2023-01-15T00:25:00.703Z,99670
2023-01-15T00:26:00.600Z,99670
2023-01-15T00:27:00.610Z,99670
2023-01-15T00:28:01.817Z,99660
2023-01-15T00:29:00.949Z,99660
2023-01-15T00:30:00.706Z,99680
2023-01-15T00:31:00.610Z,99680
2023-01-15T00:32:03.093Z,99670
2023-01-15T00:33:00.594Z,99670
2023-01-15T00:34:00.884Z,99650
2023-01-15T00:35:00.628Z,99650
2023-01-15T00:36:00.593Z,99660
2023-01-15T00:37:00.686Z,99660
2023-01-15T00:38:00.621Z,99660
2023-01-15T00:39:00.581Z,99660
2023-01-15T00:40:00.593Z,99660
2023-01-15T00:41:00.589Z,99660
2023-01-15T00:42:01.001Z,99660
2023-01-15T00:43:00.584Z,99660
2023-01-15T00:44:00.613Z,99650
2023-01-15T00:45:00.649Z,99650
2023-01-15T00:46:01.125Z,99660
2023-01-15T00:47:00.639Z,99660
2023-01-15T00:48:00.593Z,99660
2023-01-15T00:49:00.791Z,99660
2023-01-15T00:50:00.667Z,99670
2023-01-15T00:51:00.802Z,99670
2023-01-15T00:52:00.593Z,99670
2023-01-15T00:53:00.606Z,99670
2023-01-15T00:54:00.602Z,99680
2023-01-15T00:55:00.623Z,99680
2023-01-15T00:56:00.634Z,99680
2023-01-15T00:57:00.910Z,99680
2023-01-15T00:58:00.593Z,99680
2023-01-15T00:59:01.664Z,99680
2023-01-15T01:00:00.644Z,99670
2023-01-15T01:01:00.702Z,99670
2023-01-15T01:02:00.738Z,99680
2023-01-15T01:03:00.599Z,99680
2023-01-15T01:04:00.649Z,99680
2023-01-15T01:05:00.651Z,99680
2023-01-15T01:06:01.114Z,99690
2023-01-15T01:07:00.643Z,99690
2023-01-15T01:08:00.576Z,99680
2023-01-15T01:09:00.820Z,99680
2023-01-15T01:10:00.597Z,99680
2023-01-15T01:11:01.565Z,99680
2023-01-15T01:12:00.597Z,99680
2023-01-15T01:13:00.604Z,99680
2023-01-15T01:14:00.656Z,99690
2023-01-15T01:15:00.647Z,99690
2023-01-15T01:16:01.044Z,99680
2023-01-15T01:17:00.609Z,99680
2023-01-15T01:18:00.696Z,99680
2023-01-15T01:19:02.214Z,99680
2023-01-15T01:20:00.649Z,99680
2023-01-15T01:21:03.278Z,99680
2023-01-15T01:22:00.614Z,99680
2023-01-15T01:23:00.593Z,99680
2023-01-15T01:24:00.658Z,99690
2023-01-15T01:25:00.598Z,99690
2023-01-15T01:26:00.615Z,99690
2023-01-15T01:27:00.611Z,99690
2023-01-15T01:28:00.635Z,99680
2023-01-15T01:29:00.612Z,99680
2023-01-15T01:30:00.935Z,99680
2023-01-15T01:31:03.673Z,99680
2023-01-15T01:32:00.823Z,99680
2023-01-15T01:33:00.610Z,99680
2023-01-15T01:34:00.589Z,99680
2023-01-15T01:35:00.623Z,99680
2023-01-15T01:36:00.622Z,99680
2023-01-15T01:37:00.676Z,99680
2023-01-15T01:38:00.619Z,99680
2023-01-15T01:39:01.149Z,99680
2023-01-15T01:40:00.671Z,99680
2023-01-15T01:41:00.619Z,99680
2023-01-15T01:42:00.623Z,99670
2023-01-15T01:43:00.580Z,99670
2023-01-15T01:44:03.690Z,99680
2023-01-15T01:45:03.233Z,99680
2023-01-15T01:46:00.696Z,99680
2023-01-15T01:47:01.868Z,99680
2023-01-15T01:48:03.112Z,99690
2023-01-15T01:49:03.579Z,99680
2023-01-15T01:50:03.112Z,99680
2023-01-15T01:51:01.642Z,99680
2023-01-15T01:52:02.640Z,99680
2023-01-15T01:53:04.853Z,99690
2023-01-15T01:54:01.242Z,99690
2023-01-15T01:55:01.408Z,99690
2023-01-15T01:56:00.614Z,99690
2023-01-15T01:57:01.438Z,99690
2023-01-15T01:58:02.989Z,99680
2023-01-15T01:59:01.741Z,99680
2023-01-15T02:00:01.297Z,99680
2023-01-15T02:01:01.172Z,99680
2023-01-15T02:02:00.793Z,99690
2023-01-15T02:03:01.403Z,99690
2023-01-15T02:04:01.126Z,99680
2023-01-15T02:05:01.295Z,99680
2023-01-15T02:06:01.738Z,99680
2023-01-15T02:07:01.453Z,99680
2023-01-15T02:08:00.620Z,99680
2023-01-15T02:09:00.604Z,99680
2023-01-15T02:10:00.681Z,99680
2023-01-15T02:11:00.762Z,99680
2023-01-15T02:12:05.355Z,99690
2023-01-15T02:13:10.539Z,99680
2023-01-15T02:14:07.011Z,99680
2023-01-15T02:15:06.599Z,99690
2023-01-15T02:16:05.510Z,99690
2023-01-15T02:17:00.587Z,99690
2023-01-15T02:18:08.876Z,99690
2023-01-15T02:19:03.857Z,99690
2023-01-15T02:20:01.599Z,99690
2023-01-15T02:21:04.337Z,99680
2023-01-15T02:22:10.525Z,99680
2023-01-15T02:23:10.555Z,99680
2023-01-15T02:24:10.597Z,99680
2023-01-15T02:25:10.580Z,99680
2023-01-15T02:26:01.633Z,99680
2023-01-15T02:27:10.555Z,99680
2023-01-15T02:28:07.585Z,99680
2023-01-15T02:29:01.867Z,99680
2023-01-15T02:30:05.721Z,99670
2023-01-15T02:31:01.636Z,99670
2023-01-15T02:32:05.939Z,99670
2023-01-15T02:33:03.841Z,99670
2023-01-15T02:34:03.924Z,99670
2023-01-15T02:35:03.440Z,99670
2023-01-15T02:36:00.627Z,99670
2023-01-15T02:37:05.044Z,99670
2023-01-15T02:38:04.382Z,99670
2023-01-15T02:39:02.078Z,99670
2023-01-15T02:40:01.855Z,99670
2023-01-15T02:41:02.133Z,99670
2023-01-15T02:42:02.860Z,99660
2023-01-15T02:43:00.633Z,99660
2023-01-15T02:44:02.559Z,99670
2023-01-15T02:45:02.140Z,99670
2023-01-15T02:46:02.573Z,99670
2023-01-15T02:47:03.347Z,99670
2023-01-15T02:48:04.222Z,99660
2023-01-15T02:49:02.153Z,99660
2023-01-15T02:50:03.640Z,99670
2023-01-15T02:51:05.039Z,99660
2023-01-15T02:52:05.433Z,99660
2023-01-15T02:53:02.201Z,99660
2023-01-15T02:54:03.483Z,99650
2023-01-15T02:55:04.811Z,99650
2023-01-15T02:56:04.147Z,99650
2023-01-15T02:57:02.007Z,99650
2023-01-15T02:58:03.627Z,99650
2023-01-15T02:59:04.042Z,99650
2023-01-15T03:00:02.445Z,99650
2023-01-15T03:01:03.429Z,99650
2023-01-15T03:02:02.918Z,99660
2023-01-15T03:03:05.066Z,99660
2023-01-15T03:04:03.797Z,99660
2023-01-15T03:05:07.089Z,99660
2023-01-15T03:06:07.437Z,99660
2023-01-15T03:07:04.756Z,99650
2023-01-15T03:08:01.791Z,99650
2023-01-15T03:09:00.688Z,99650
2023-01-15T03:10:01.247Z,99660
2023-01-15T03:11:08.042Z,99660
2023-01-15T03:12:09.853Z,99660
2023-01-15T03:13:01.827Z,99660
2023-01-15T03:14:04.075Z,99660
2023-01-15T03:15:05.784Z,99660
2023-01-15T03:16:03.734Z,99660
2023-01-15T03:17:04.863Z,99660
2023-01-15T03:18:03.322Z,99660
2023-01-15T03:19:06.538Z,99660
2023-01-15T03:20:05.482Z,99660
2023-01-15T03:21:04.627Z,99660
2023-01-15T03:22:03.853Z,99660
2023-01-15T03:23:05.632Z,99660
2023-01-15T03:24:01.058Z,99660
2023-01-15T03:25:01.604Z,99660
2023-01-15T03:26:00.643Z,99660
2023-01-15T03:27:01.209Z,99660
2023-01-15T03:28:02.264Z,99670
2023-01-15T03:29:01.904Z,99670
2023-01-15T03:30:05.672Z,99650
2023-01-15T03:31:00.677Z,99650
2023-01-15T03:32:00.838Z,99660
2023-01-15T03:33:00.586Z,99660
2023-01-15T03:34:01.195Z,99650
2023-01-15T03:35:00.623Z,99650
2023-01-15T03:36:00.769Z,99650
2023-01-15T03:37:00.619Z,99650
2023-01-15T03:38:00.615Z,99650
2023-01-15T03:39:00.785Z,99650
2023-01-15T03:40:00.700Z,99640
2023-01-15T03:41:10.540Z,99640
2023-01-15T03:42:06.875Z,99640
2023-01-15T03:43:03.596Z,99650
2023-01-15T03:44:00.589Z,99650
2023-01-15T03:45:09.178Z,99650
2023-01-15T03:46:03.021Z,99650
2023-01-15T03:47:10.550Z,99650
2023-01-15T03:48:04.321Z,99650
2023-01-15T03:49:09.893Z,99650
2023-01-15T03:50:07.866Z,99650
2023-01-15T03:51:06.024Z,99660
2023-01-15T03:52:03.828Z,99660
2023-01-15T03:53:08.083Z,99650
2023-01-15T03:54:02.299Z,99650
2023-01-15T03:55:10.537Z,99650
2023-01-15T03:56:01.589Z,99650
2023-01-15T03:57:10.539Z,99650
2023-01-15T03:58:06.324Z,99650
2023-01-15T03:59:03.875Z,99640
2023-01-15T04:00:06.106Z,99640
2023-01-15T04:01:02.101Z,99640
2023-01-15T04:02:02.897Z,99640
2023-01-15T04:03:01.069Z,99640
2023-01-15T04:04:01.389Z,99630
2023-01-15T04:05:01.172Z,99630
2023-01-15T04:06:01.570Z,99640
2023-01-15T04:07:01.531Z,99640
2023-01-15T04:08:01.340Z,99640
2023-01-15T04:09:02.143Z,99640
2023-01-15T04:10:00.722Z,99640
2023-01-15T04:11:01.207Z,99640
2023-01-15T04:12:00.618Z,99640
2023-01-15T04:13:00.596Z,99640
2023-01-15T04:14:00.961Z,99630
2023-01-15T04:15:00.645Z,99630
2023-01-15T04:16:01.107Z,99630
2023-01-15T04:17:00.669Z,99630
2023-01-15T04:18:00.586Z,99640
2023-01-15T04:19:00.583Z,99640
2023-01-15T04:20:00.717Z,99630
2023-01-15T04:21:00.605Z,99630
2023-01-15T04:22:00.627Z,99630
2023-01-15T04:23:00.631Z,99630
2023-01-15T04:24:00.620Z,99630
2023-01-15T04:25:01.268Z,99630
2023-01-15T04:26:00.613Z,99630
2023-01-15T04:27:00.612Z,99630
2023-01-15T04:28:00.633Z,99630
2023-01-15T04:29:00.585Z,99630
2023-01-15T04:30:00.687Z,99630
2023-01-15T04:31:00.635Z,99630
2023-01-15T04:32:00.617Z,99640
2023-01-15T04:33:00.716Z,99640
2023-01-15T04:34:01.130Z,99640
2023-01-15T04:35:00.605Z,99640
2023-01-15T04:36:01.543Z,99620
2023-01-15T04:37:00.624Z,99620
2023-01-15T04:38:00.718Z,99620
2023-01-15T04:39:01.182Z,99620
2023-01-15T04:40:00.600Z,99620
2023-01-15T04:41:01.356Z,99620
2023-01-15T04:42:00.611Z,99630
2023-01-15T04:43:00.663Z,99630
2023-01-15T04:44:00.599Z,99630
2023-01-15T04:45:00.592Z,99630
2023-01-15T04:46:00.660Z,99640
2023-01-15T04:47:00.639Z,99640
2023-01-15T04:48:00.575Z,99630
2023-01-15T04:49:00.708Z,99630
2023-01-15T04:50:00.600Z,99630
2023-01-15T04:51:02.789Z,99630
2023-01-15T04:52:00.585Z,99650
2023-01-15T04:53:00.651Z,99650
2023-01-15T04:54:01.416Z,99650
2023-01-15T04:55:00.601Z,99650
2023-01-15T04:56:01.274Z,99650
2023-01-15T04:57:00.637Z,99650
2023-01-15T04:58:00.665Z,99650
2023-01-15T04:59:00.990Z,99650
2023-01-15T05:00:00.597Z,99660
2023-01-15T05:01:00.965Z,99660
2023-01-15T05:02:05.937Z,99650
2023-01-15T05:03:00.592Z,99650
2023-01-15T05:04:00.962Z,99660
2023-01-15T05:05:00.595Z,99660
2023-01-15T05:06:00.965Z,99650
2023-01-15T05:07:01.472Z,99650
2023-01-15T05:08:00.621Z,99660
2023-01-15T05:09:01.178Z,99660
2023-01-15T05:10:00.611Z,99650
2023-01-15T05:11:01.415Z,99650
2023-01-15T05:12:00.681Z,99660
2023-01-15T05:13:00.608Z,99660
2023-01-15T05:14:00.607Z,99650
2023-01-15T05:15:00.656Z,99650
2023-01-15T05:16:08.796Z,99660
2023-01-15T05:17:00.594Z,99660
2023-01-15T05:18:00.578Z,99650
2023-01-15T05:19:01.610Z,99650
2023-01-15T05:20:00.629Z,99650
2023-01-15T05:21:00.607Z,99650
2023-01-15T05:22:00.621Z,99650
2023-01-15T05:23:00.605Z,99650
2023-01-15T05:24:01.486Z,99640
2023-01-15T05:25:00.600Z,99640
2023-01-15T05:26:02.061Z,99650
2023-01-15T05:27:00.606Z,99650
2023-01-15T05:28:00.665Z,99650
2023-01-15T05:29:01.242Z,99650
2023-01-15T05:30:00.638Z,99650
2023-01-15T05:31:08.306Z,99640
2023-01-15T05:32:00.585Z,99640
2023-01-15T05:33:00.588Z,99640
2023-01-15T05:34:01.023Z,99640
2023-01-15T05:35:00.600Z,99640
2023-01-15T05:36:02.990Z,99650
2023-01-15T05:37:00.653Z,99650
2023-01-15T05:38:00.617Z,99640
2023-01-15T05:39:00.612Z,99640
2023-01-15T05:40:00.717Z,99640
2023-01-15T05:41:05.065Z,99630
2023-01-15T05:42:00.602Z,99630
2023-01-15T05:43:00.623Z,99630
2023-01-15T05:44:02.268Z,99630
2023-01-15T05:45:00.591Z,99630
2023-01-15T05:46:01.003Z,99630
2023-01-15T05:47:01.157Z,99630
2023-01-15T05:48:00.643Z,99630
2023-01-15T05:49:01.284Z,99630
2023-01-15T05:50:00.609Z,99630
2023-01-15T05:51:00.942Z,99630
2023-01-15T05:52:01.019Z,99640
2023-01-15T05:53:00.582Z,99640
2023-01-15T05:54:01.275Z,99640
2023-01-15T05:55:00.616Z,99640
2023-01-15T05:56:01.009Z,99640
2023-01-15T05:57:01.365Z,99640
2023-01-15T05:58:00.636Z,99630
2023-01-15T05:59:00.683Z,99630
2023-01-15T06:00:00.608Z,99640
2023-01-15T06:01:05.099Z,99640
2023-01-15T06:02:00.607Z,99640
2023-01-15T06:03:00.725Z,99640
2023-01-15T06:04:01.360Z,99640
2023-01-15T06:05:00.638Z,99640
2023-01-15T06:06:00.668Z,99640
2023-01-15T06:07:00.595Z,99640
2023-01-15T06:08:01.502Z,99630
2023-01-15T06:09:00.777Z,99630
2023-01-15T06:10:00.610Z,99630
2023-01-15T06:11:00.596Z,99630
2023-01-15T06:12:00.617Z,99620
2023-01-15T06:13:00.602Z,99620
2023-01-15T06:14:00.641Z,99640
2023-01-15T06:15:00.605Z,99640
2023-01-15T06:16:01.896Z,99640
2023-01-15T06:17:00.595Z,99640
2023-01-15T06:18:00.651Z,99630
2023-01-15T06:19:01.367Z,99630
2023-01-15T06:20:00.618Z,99640
2023-01-15T06:21:02.887Z,99640
2023-01-15T06:22:00.583Z,99650
2023-01-15T06:23:00.640Z,99650
2023-01-15T06:24:00.682Z,99650
2023-01-15T06:25:00.607Z,99650
2023-01-15T06:26:01.369Z,99650
2023-01-15T06:27:00.588Z,99650
2023-01-15T06:28:00.583Z,99650
2023-01-15T06:29:00.599Z,99650
2023-01-15T06:30:00.620Z,99660
2023-01-15T06:31:03.375Z,99660
2023-01-15T06:32:00.589Z,99670
2023-01-15T06:33:00.634Z,99670
2023-01-15T06:34:00.630Z,99670
2023-01-15T06:35:00.627Z,99670
2023-01-15T06:36:02.715Z,99670
2023-01-15T06:37:00.583Z,99670
2023-01-15T06:38:00.579Z,99670
2023-01-15T06:39:00.620Z,99670
2023-01-15T06:40:00.743Z,99670
2023-01-15T06:41:01.032Z,99670
2023-01-15T06:42:00.582Z,99670
2023-01-15T06:43:00.611Z,99670
2023-01-15T06:44:00.844Z,99680
2023-01-15T06:45:00.619Z,99680
2023-01-15T06:46:00.605Z,99680
2023-01-15T06:47:07.280Z,99690
2023-01-15T06:48:00.588Z,99690
2023-01-15T06:49:00.609Z,99690
2023-01-15T06:50:00.608Z,99680
2023-01-15T06:51:00.607Z,99680
2023-01-15T06:52:01.018Z,99670
2023-01-15T06:53:00.622Z,99670
2023-01-15T06:54:00.627Z,99670
2023-01-15T06:55:00.577Z,99670
2023-01-15T06:56:00.974Z,99660
2023-01-15T06:57:00.667Z,99660
2023-01-15T06:58:02.061Z,99660
2023-01-15T06:59:00.593Z,99660
2023-01-15T07:00:00.594Z,99660
2023-01-15T07:01:05.630Z,99670
2023-01-15T07:02:00.640Z,99670
2023-01-15T07:03:00.989Z,99670
2023-01-15T07:04:00.668Z,99670
2023-01-15T07:05:00.632Z,99670
2023-01-15T07:06:04.254Z,99680
2023-01-15T07:07:00.620Z,99680
2023-01-15T07:08:00.587Z,99680
2023-01-15T07:09:00.597Z,99680
2023-01-15T07:10:00.688Z,99690
2023-01-15T07:11:01.421Z,99690
2023-01-15T07:12:00.606Z,99690
2023-01-15T07:13:00.618Z,99690
2023-01-15T07:14:00.610Z,99690
2023-01-15T07:15:00.620Z,99690
2023-01-15T07:16:01.213Z,99690
2023-01-15T07:17:00.603Z,99690
2023-01-15T07:18:00.622Z,99670
2023-01-15T07:19:00.796Z,99670
2023-01-15T07:20:00.858Z,99680
2023-01-15T07:21:00.612Z,99680
2023-01-15T07:22:00.595Z,99690
2023-01-15T07:23:00.601Z,99690
2023-01-15T07:24:00.873Z,99680
2023-01-15T07:25:00.656Z,99680
2023-01-15T07:26:00.603Z,99690
2023-01-15T07:27:00.984Z,99690
2023-01-15T07:28:00.582Z,99680
2023-01-15T07:29:00.649Z,99680
2023-01-15T07:30:00.597Z,99680
2023-01-15T07:31:00.691Z,99680
2023-01-15T07:32:00.578Z,99690
2023-01-15T07:33:00.604Z,99690
2023-01-15T07:34:00.603Z,99690
2023-01-15T07:35:00.614Z,99690
2023-01-15T07:36:02.099Z,99700
2023-01-15T07:37:00.643Z,99700
2023-01-15T07:38:00.605Z,99690
2023-01-15T07:39:02.628Z,99690
2023-01-15T07:40:00.604Z,99690
2023-01-15T07:41:00.621Z,99690
2023-01-15T07:42:00.627Z,99700
2023-01-15T07:43:00.625Z,99700
2023-01-15T07:44:00.646Z,99700
2023-01-15T07:45:00.607Z,99700
2023-01-15T07:46:00.712Z,99710
2023-01-15T07:47:00.954Z,99710
2023-01-15T07:48:00.664Z,99700
2023-01-15T07:49:00.608Z,99700
2023-01-15T07:50:00.922Z,99700
2023-01-15T07:51:00.582Z,99700
2023-01-15T07:52:00.584Z,99710
2023-01-15T07:53:00.593Z,99710
2023-01-15T07:54:00.605Z,99710
2023-01-15T07:55:00.661Z,99710
2023-01-15T07:56:00.650Z,99700
2023-01-15T07:57:00.892Z,99700
2023-01-15T07:58:01.484Z,99710
2023-01-15T07:59:00.607Z,99710
2023-01-15T08:00:00.635Z,99700
2023-01-15T08:01:00.711Z,99700
2023-01-15T08:02:00.770Z,99710
2023-01-15T08:03:00.642Z,99710
2023-01-15T08:04:00.801Z,99700
2023-01-15T08:05:00.629Z,99700
2023-01-15T08:06:00.588Z,99700
2023-01-15T08:07:01.612Z,99700
2023-01-15T08:08:00.605Z,99700
2023-01-15T08:09:00.758Z,99700
2023-01-15T08:10:00.628Z,99700
2023-01-15T08:11:01.103Z,99700
2023-01-15T08:12:01.354Z,99710
2023-01-15T08:13:00.611Z,99710
2023-01-15T08:14:00.615Z,99710
2023-01-15T08:15:00.587Z,99710
2023-01-15T08:16:00.622Z,99710
2023-01-15T08:17:00.602Z,99710
2023-01-15T08:18:00.591Z,99710
2023-01-15T08:19:00.588Z,99710
2023-01-15T08:20:01.141Z,99720
2023-01-15T08:21:00.617Z,99720
2023-01-15T08:22:00.605Z,99710
2023-01-15T08:23:00.894Z,99710
2023-01-15T08:24:00.609Z,99700
2023-01-15T08:25:00.622Z,99700
2023-01-15T08:26:00.674Z,99720
2023-01-15T08:27:00.661Z,99720
2023-01-15T08:28:00.761Z,99730
2023-01-15T08:29:00.604Z,99730
2023-01-15T08:30:00.695Z,99730
2023-01-15T08:31:00.608Z,99730
2023-01-15T08:32:03.074Z,99730
2023-01-15T08:33:01.136Z,99730
2023-01-15T08:34:00.594Z,99730
2023-01-15T08:35:00.600Z,99730
2023-01-15T08:36:00.615Z,99720
2023-01-15T08:37:00.609Z,99720
2023-01-15T08:38:07.887Z,99720
2023-01-15T08:39:00.623Z,99720
2023-01-15T08:40:00.630Z,99720
2023-01-15T08:41:00.605Z,99720
2023-01-15T08:42:00.663Z,99720
2023-01-15T08:43:01.019Z,99720
2023-01-15T08:44:00.604Z,99720
2023-01-15T08:45:00.622Z,99720
2023-01-15T08:46:01.911Z,99720
2023-01-15T08:47:00.664Z,99720
2023-01-15T08:48:00.605Z,99720
2023-01-15T08:49:00.580Z,99720
2023-01-15T08:50:00.630Z,99710
2023-01-15T08:51:08.926Z,99710
2023-01-15T08:52:00.631Z,99710
2023-01-15T08:53:00.603Z,99710
2023-01-15T08:54:00.663Z,99710
2023-01-15T08:55:00.653Z,99710
2023-01-15T08:56:00.839Z,99710
2023-01-15T08:57:00.637Z,99710
2023-01-15T08:58:00.614Z,99690
2023-01-15T08:59:04.451Z,99690
2023-01-15T09:00:00.776Z,99690
2023-01-15T09:01:03.310Z,99690
2023-01-15T09:02:00.708Z,99700
2023-01-15T09:03:00.587Z,99700
2023-01-15T09:04:00.672Z,99700
2023-01-15T09:05:00.697Z,99700
2023-01-15T09:06:01.241Z,99700
2023-01-15T09:07:00.724Z,99700
2023-01-15T09:08:00.594Z,99710
2023-01-15T09:09:00.648Z,99710
2023-01-15T09:10:00.584Z,99710
2023-01-15T09:11:01.696Z,99710
2023-01-15T09:12:00.644Z,99700
2023-01-15T09:13:01.485Z,99700
2023-01-15T09:14:00.697Z,99700
2023-01-15T09:15:03.228Z,99700
2023-01-15T09:16:01.083Z,99700
2023-01-15T09:17:00.623Z,99700
2023-01-15T09:18:00.636Z,99700
2023-01-15T09:19:00.701Z,99700
2023-01-15T09:20:00.617Z,99700
2023-01-15T09:21:00.604Z,99700
2023-01-15T09:22:00.583Z,99700
2023-01-15T09:23:00.671Z,99700
2023-01-15T09:24:00.600Z,99700
2023-01-15T09:25:00.625Z,99700
2023-01-15T09:26:01.680Z,99700
2023-01-15T09:27:00.584Z,99700
2023-01-15T09:28:00.674Z,99700
2023-01-15T09:29:01.214Z,99700
2023-01-15T09:30:00.591Z,99700
2023-01-15T09:31:00.812Z,99700
2023-01-15T09:32:00.621Z,99700
2023-01-15T09:33:00.604Z,99700
2023-01-15T09:34:00.906Z,99710
2023-01-15T09:35:00.634Z,99710
2023-01-15T09:36:00.932Z,99710
2023-01-15T09:37:00.579Z,99710
2023-01-15T09:38:00.582Z,99720
2023-01-15T09:39:01.189Z,99720
2023-01-15T09:40:00.592Z,99710
2023-01-15T09:41:06.312Z,99700
2023-01-15T09:42:01.582Z,99700
2023-01-15T09:43:05.060Z,99710
2023-01-15T09:44:03.840Z,99710
2023-01-15T09:45:01.597Z,99710
2023-01-15T09:46:04.371Z,99700
2023-01-15T09:47:10.539Z,99700
2023-01-15T09:48:06.245Z,99700
2023-01-15T09:49:10.528Z,99700
2023-01-15T09:50:03.848Z,99700
2023-01-15T09:51:10.544Z,99700
2023-01-15T09:52:10.540Z,99700
2023-01-15T09:53:10.546Z,99700
2023-01-15T09:54:10.537Z,99700
2023-01-15T09:55:04.510Z,99700
2023-01-15T09:56:01.278Z,99700
2023-01-15T09:57:01.291Z,99700
2023-01-15T09:58:03.706Z,99690
2023-01-15T09:59:04.486Z,99700
2023-01-15T10:00:02.319Z,99700
2023-01-15T10:01:00.727Z,99700
2023-01-15T10:02:02.968Z,99700
2023-01-15T10:03:04.400Z,99700
2023-01-15T10:04:05.446Z,99700
2023-01-15T10:05:08.820Z,99710
2023-01-15T10:06:07.973Z,99710
2023-01-15T10:07:10.517Z,99710
2023-01-15T10:08:08.875Z,99710
2023-01-15T10:09:05.569Z,99730
2023-01-15T10:10:03.568Z,99730
2023-01-15T10:11:03.505Z,99730
2023-01-15T10:12:06.535Z,99730
2023-01-15T10:13:07.495Z,99720
2023-01-15T10:14:05.014Z,99720
2023-01-15T10:15:03.873Z,99730
2023-01-15T10:16:01.136Z,99730
2023-01-15T10:17:00.619Z,99730
2023-01-15T10:18:00.787Z,99710
2023-01-15T10:19:01.080Z,99710
2023-01-15T10:20:01.122Z,99720
2023-01-15T10:21:10.517Z,99730
2023-01-15T10:22:07.727Z,99730
2023-01-15T10:23:08.400Z,99720
2023-01-15T10:24:05.052Z,99720
2023-01-15T10:25:02.467Z,99720
2023-01-15T10:26:02.818Z,99730
2023-01-15T10:27:04.247Z,99720
2023-01-15T10:28:04.455Z,99720
2023-01-15T10:29:03.641Z,99730
2023-01-15T10:30:04.028Z,99730
2023-01-15T10:31:05.502Z,99710
2023-01-15T10:32:10.521Z,99710
2023-01-15T10:33:09.079Z,99720
2023-01-15T10:34:10.539Z,99720
2023-01-15T10:35:01.626Z,99720
2023-01-15T10:36:07.008Z,99710
2023-01-15T10:37:03.842Z,99720
2023-01-15T10:38:10.515Z,99720
2023-01-15T10:39:03.878Z,99710
2023-01-15T10:40:10.536Z,99710
2023-01-15T10:41:03.827Z,99720
2023-01-15T10:42:10.542Z,99720
2023-01-15T10:43:09.433Z,99720
2023-01-15T10:44:07.918Z,99720
2023-01-15T10:45:01.602Z,99720
2023-01-15T10:46:06.665Z,99720
2023-01-15T10:47:01.913Z,99720
2023-01-15T10:48:10.512Z,99710
2023-01-15T10:49:03.202Z,99710
2023-01-15T10:50:02.323Z,99720
2023-01-15T10:51:02.269Z,99720
2023-01-15T10:52:03.140Z,99730
2023-01-15T10:53:05.009Z,99740
2023-01-15T10:54:00.568Z,99740
2023-01-15T10:55:00.557Z,99740
2023-01-15T10:56:10.522Z,99730
2023-01-15T10:57:03.886Z,99730
2023-01-15T10:58:11.132Z,99730
2023-01-15T10:59:00.565Z,99730
2023-01-15T11:00:00.619Z,99740
2023-01-15T11:01:05.317Z,99730
2023-01-15T11:02:01.826Z,99730
2023-01-15T11:03:02.359Z,99730
2023-01-15T11:04:00.610Z,99730
2023-01-15T11:05:01.164Z,99730
2023-01-15T11:06:00.615Z,99730
2023-01-15T11:07:00.582Z,99730
2023-01-15T11:08:39.507Z,99730
2023-01-15T11:09:09.751Z,99730
2023-01-15T11:10:01.843Z,99730
2023-01-15T11:11:10.545Z,99730
2023-01-15T11:12:07.981Z,99730
2023-01-15T11:13:10.517Z,99740
2023-01-15T11:14:00.592Z,99740
2023-01-15T11:15:00.629Z,99740
2023-01-15T11:16:00.780Z,99740
2023-01-15T11:17:01.074Z,99740
2023-01-15T11:18:01.445Z,99720
2023-01-15T11:19:01.834Z,99720
2023-01-15T11:20:01.734Z,99730
2023-01-15T11:21:01.574Z,99730
2023-01-15T11:22:04.505Z,99740
2023-01-15T11:23:10.525Z,99740
2023-01-15T11:24:00.632Z,99740
2023-01-15T11:25:00.778Z,99740
2023-01-15T11:26:00.669Z,99730
2023-01-15T11:27:00.676Z,99730
2023-01-15T11:28:02.429Z,99720
2023-01-15T11:29:10.516Z,99730
2023-01-15T11:30:01.623Z,99730
2023-01-15T11:31:01.318Z,99730
2023-01-15T11:32:00.612Z,99720
2023-01-15T11:33:01.433Z,99720
2023-01-15T11:34:01.590Z,99720
2023-01-15T11:35:10.517Z,99720
2023-01-15T11:36:02.042Z,99720
2023-01-15T11:37:01.563Z,99720
2023-01-15T11:38:10.543Z,99730
2023-01-15T11:39:00.580Z,99730
2023-01-15T11:40:00.903Z,99720
2023-01-15T11:41:01.335Z,99720
2023-01-15T11:42:01.855Z,99720
2023-01-15T11:43:00.634Z,99720
2023-01-15T11:44:00.611Z,99740
2023-01-15T11:45:00.804Z,99740
2023-01-15T11:46:03.815Z,99730
2023-01-15T11:47:02.581Z,99730
2023-01-15T11:48:12.656Z,99730
2023-01-15T11:49:07.604Z,99740
2023-01-15T11:50:00.747Z,99740
2023-01-15T11:51:05.390Z,99730
2023-01-15T11:52:04.029Z,99730
2023-01-15T11:53:00.852Z,99730
2023-01-15T11:54:03.667Z,99740
2023-01-15T11:55:00.682Z,99740
2023-01-15T11:56:03.091Z,99730
2023-01-15T11:57:01.131Z,99730
2023-01-15T11:58:00.966Z,99730
2023-01-15T11:59:01.954Z,99730
2023-01-15T12:00:00.623Z,99730
2023-01-15T12:01:00.703Z,99730
2023-01-15T12:02:10.518Z,99730
2023-01-15T12:03:04.672Z,99730
2023-01-15T12:04:04.269Z,99730
2023-01-15T12:05:01.115Z,99730
2023-01-15T12:06:03.238Z,99730
2023-01-15T12:07:03.048Z,99730
2023-01-15T12:08:02.716Z,99720
2023-01-15T12:09:04.688Z,99720
2023-01-15T12:10:11.370Z,99720
2023-01-15T12:11:17.474Z,99740
2023-01-15T12:12:08.804Z,99740
2023-01-15T12:13:06.973Z,99730
2023-01-15T12:14:00.752Z,99730
2023-01-15T12:15:00.705Z,99730
2023-01-15T12:16:13.619Z,99730
2023-01-15T12:17:11.547Z,99720
2023-01-15T12:18:04.163Z,99720
2023-01-15T12:19:08.077Z,99740
2023-01-15T12:20:12.393Z,99740
2023-01-15T12:21:10.663Z,99740
2023-01-15T12:22:00.739Z,99740
2023-01-15T12:23:10.681Z,99740
2023-01-15T12:24:00.774Z,99740
2023-01-15T12:25:00.777Z,99740
2023-01-15T12:26:00.687Z,99720
2023-01-15T12:27:10.589Z,99710
2023-01-15T12:28:01.785Z,99710
2023-01-15T12:29:00.611Z,99710
2023-01-15T12:30:08.516Z,99710
2023-01-15T12:31:03.950Z,99730
2023-01-15T12:32:04.344Z,99730
2023-01-15T12:33:00.739Z,99730
2023-01-15T12:34:06.371Z,99720
2023-01-15T12:35:05.455Z,99730
2023-01-15T12:36:05.923Z,99730
2023-01-15T12:37:05.961Z,99730
2023-01-15T12:38:08.635Z,99730
2023-01-15T12:39:03.233Z,99730
2023-01-15T12:40:10.622Z,99710
2023-01-15T12:41:03.378Z,99710
2023-01-15T12:42:03.187Z,99720
2023-01-15T12:43:00.873Z,99720
2023-01-15T12:44:01.060Z,99720
2023-01-15T12:45:05.332Z,99720
2023-01-15T12:46:07.120Z,99720
2023-01-15T12:47:02.212Z,99720
2023-01-15T12:48:10.589Z,99720
2023-01-15T12:49:01.762Z,99720
2023-01-15T12:50:07.901Z,99720
2023-01-15T12:51:02.391Z,99720
2023-01-15T12:52:06.939Z,99730